createdAt,value
2023-09-17T00:04:09.959Z,15.7
2023-09-17T00:14:23.371Z,15.7
2023-09-17T00:19:30.113Z,15.6
2023-09-17T00:24:36.846Z,15.6
2023-09-17T00:29:43.557Z,15.5
2023-09-17T00:34:50.280Z,15.7
2023-09-17T00:39:57.074Z,15.7
2023-09-17T00:45:03.773Z,15.6
2023-09-17T00:50:10.525Z,15.6
2023-09-17T00:55:17.271Z,15.6
2023-09-17T01:00:23.973Z,15.5
2023-09-17T01:05:30.742Z,15.5
2023-09-17T01:10:37.473Z,15.5
2023-09-17T01:15:44.207Z,15.5
2023-09-17T01:20:50.951Z,15.4
2023-09-17T01:25:57.675Z,15.4
2023-09-17T01:31:04.410Z,15.4
2023-09-17T01:36:11.205Z,15.4
2023-09-17T01:41:17.889Z,15.3
2023-09-17T01:46:24.740Z,15.3
2023-09-17T01:51:31.343Z,15.3
2023-09-17T01:56:38.100Z,15.2
2023-09-17T02:01:44.925Z,15.2
2023-09-17T02:06:51.584Z,15.2
2023-09-17T02:11:59.549Z,15.2
2023-09-17T02:17:06.269Z,15.1
2023-09-17T02:22:13.113Z,15.1
2023-09-17T02:27:19.739Z,15.1
2023-09-17T02:32:26.489Z,15.1
2023-09-17T02:37:33.237Z,15.1
2023-09-17T02:42:39.948Z,15
2023-09-17T02:47:46.740Z,15
2023-09-17T02:52:53.456Z,15
2023-09-17T02:58:00.174Z,15
2023-09-17T03:03:07.017Z,14.9
2023-09-17T03:08:13.626Z,15
2023-09-17T03:13:20.378Z,15
2023-09-17T03:18:27.092Z,15
2023-09-17T03:23:33.833Z,15
2023-09-17T03:28:40.663Z,15
2023-09-17T03:33:47.258Z,14.9
2023-09-17T03:38:54.048Z,14.9
2023-09-17T03:44:00.801Z,14.9
2023-09-17T03:49:07.545Z,14.9
2023-09-17T03:54:14.253Z,14.8
2023-09-17T03:59:20.978Z,14.8
2023-09-17T04:04:27.826Z,14.8
2023-09-17T04:09:34.468Z,14.8
2023-09-17T04:14:42.399Z,14.8
2023-09-17T04:19:49.243Z,14.7
2023-09-17T04:24:55.927Z,14.7
2023-09-17T04:30:02.681Z,14.7
2023-09-17T04:35:09.391Z,14.7
2023-09-17T04:40:16.132Z,14.6
2023-09-17T04:45:22.943Z,14.6
2023-09-17T04:50:29.625Z,14.6
2023-09-17T04:55:36.403Z,14.6
2023-09-17T05:00:43.081Z,14.6
2023-09-17T05:05:49.789Z,14.6
2023-09-17T05:10:56.506Z,14.6
2023-09-17T05:16:04.561Z,14.6
2023-09-17T05:21:12.666Z,14.6
2023-09-17T05:26:19.228Z,14.5
2023-09-17T05:31:25.913Z,14.5
2023-09-17T05:36:32.684Z,14.5
2023-09-17T05:41:39.446Z,14.5
2023-09-17T05:46:46.195Z,14.4
2023-09-17T05:51:52.903Z,14.5
2023-09-17T05:56:59.631Z,14.5
2023-09-17T06:02:06.432Z,14.5
2023-09-17T06:07:13.164Z,14.4
2023-09-17T06:12:19.888Z,14.4
2023-09-17T06:17:26.694Z,14.4
2023-09-17T06:22:33.385Z,14.4
2023-09-17T06:27:40.094Z,14.4
2023-09-17T06:32:46.864Z,14.4
2023-09-17T06:37:53.587Z,14.4
2023-09-17T06:43:00.302Z,14.5
2023-09-17T06:48:07.077Z,14.5
2023-09-17T06:53:13.771Z,14.6
2023-09-17T06:58:20.504Z,14.6
2023-09-17T07:03:27.237Z,14.7
2023-09-17T07:08:33.987Z,14.7
2023-09-17T07:13:40.799Z,14.8
2023-09-17T07:18:47.441Z,14.8
2023-09-17T07:23:54.176Z,15
2023-09-17T07:29:00.958Z,14.9
2023-09-17T07:34:07.647Z,15.1
2023-09-17T07:39:14.365Z,15.1
2023-09-17T07:44:21.155Z,15.2
2023-09-17T07:49:27.905Z,15.2
2023-09-17T07:54:34.634Z,15.3
2023-09-17T07:59:42.616Z,15.4
2023-09-17T08:04:49.342Z,15.4
2023-09-17T08:09:58.805Z,15.4
2023-09-17T08:15:02.793Z,15.5
2023-09-17T08:20:09.514Z,15.5
2023-09-17T08:25:16.245Z,15.6
2023-09-17T08:30:23.010Z,15.7
2023-09-17T08:35:29.708Z,15.8
2023-09-17T08:40:36.470Z,15.8
2023-09-17T08:45:43.217Z,15.9
2023-09-17T08:50:49.930Z,16
2023-09-17T08:55:56.665Z,16
2023-09-17T09:01:03.427Z,16.1
2023-09-17T09:06:10.142Z,16.2
2023-09-17T09:11:16.880Z,16.2
2023-09-17T09:16:23.657Z,16.3
2023-09-17T09:21:30.345Z,16.4
2023-09-17T09:26:38.298Z,16.4
2023-09-17T09:31:45.097Z,16.6
2023-09-17T09:36:51.787Z,16.5
2023-09-17T09:41:58.521Z,16.6
2023-09-17T09:47:05.306Z,16.9
2023-09-17T09:52:11.993Z,16.9
2023-09-17T09:57:18.746Z,17
2023-09-17T10:02:25.451Z,16.9
2023-09-17T10:07:32.254Z,17
2023-09-17T10:12:39.023Z,17.1
2023-09-17T10:22:52.442Z,17.3
2023-09-17T10:27:59.146Z,17.4
2023-09-17T10:33:07.111Z,17.5
2023-09-17T10:38:13.943Z,17.5
2023-09-17T10:43:20.565Z,17.6
2023-09-17T10:53:34.066Z,17.8
2023-09-17T10:58:40.921Z,17.9
2023-09-17T11:03:47.620Z,17.8
2023-09-17T11:14:01.052Z,18
2023-09-17T11:19:07.720Z,18.1
2023-09-17T11:24:14.422Z,18.2
2023-09-17T11:29:21.180Z,18.2
2023-09-17T11:34:27.937Z,18.3
2023-09-17T11:39:34.847Z,18.4
2023-09-17T11:44:41.392Z,18.5
2023-09-17T11:49:48.208Z,18.4
2023-09-17T11:54:54.884Z,18.5
2023-09-17T12:00:01.590Z,18.6
2023-09-17T12:05:08.394Z,18.7
2023-09-17T12:10:15.076Z,18.8
2023-09-17T12:15:21.804Z,18.9
2023-09-17T12:20:28.642Z,19
2023-09-17T12:25:35.275Z,19
2023-09-17T12:30:42.023Z,19
2023-09-17T12:35:48.752Z,19.1
2023-09-17T12:40:55.524Z,19
2023-09-17T12:46:02.215Z,19.1
2023-09-17T12:51:08.963Z,19.2
2023-09-17T12:56:15.668Z,19.3
2023-09-17T13:01:22.441Z,19.3
2023-09-17T13:06:29.175Z,19.4
2023-09-17T13:11:35.904Z,19.5
2023-09-17T13:16:42.714Z,19.5
2023-09-17T13:21:49.357Z,19.6
2023-09-17T13:26:56.062Z,19.7
2023-09-17T13:32:02.917Z,19.7
2023-09-17T13:37:09.645Z,19.8
2023-09-17T13:42:16.290Z,19.8
2023-09-17T13:47:23.070Z,19.9
2023-09-17T14:02:43.288Z,20
2023-09-17T14:07:49.986Z,20
2023-09-17T14:12:56.716Z,20
2023-09-17T14:18:03.535Z,20
2023-09-17T14:23:10.219Z,20
2023-09-17T14:28:16.910Z,20.1
2023-09-17T14:33:23.727Z,20.1
2023-09-17T14:38:30.400Z,20.1
2023-09-17T14:43:37.148Z,20.2
2023-09-17T14:48:43.866Z,20.2
2023-09-17T14:53:50.612Z,20.2
2023-09-17T14:58:57.388Z,20.3
2023-09-17T15:04:04.225Z,20.3
2023-09-17T15:09:10.780Z,20.3
2023-09-17T15:14:17.584Z,20.3
2023-09-17T15:19:24.266Z,20.4
2023-09-17T15:24:30.994Z,20.3
2023-09-17T15:29:37.723Z,20.3
2023-09-17T15:34:44.544Z,20.3
2023-09-17T15:39:51.306Z,20.4
2023-09-17T15:44:57.949Z,20.3
2023-09-17T15:50:04.770Z,20.3
2023-09-17T15:55:11.414Z,20.3
2023-09-17T16:00:18.144Z,20.3
2023-09-17T16:05:24.892Z,20.3
2023-09-17T16:10:31.636Z,20.3
2023-09-17T16:15:38.332Z,20.3
2023-09-17T16:20:45.069Z,20.3
2023-09-17T16:25:51.921Z,20.2
2023-09-17T16:30:58.556Z,20.2
2023-09-17T16:36:05.272Z,20.2
2023-09-17T16:41:12.074Z,20.2
2023-09-17T16:46:18.805Z,20.1
2023-09-17T16:51:25.507Z,20.1
2023-09-17T16:56:32.243Z,20
2023-09-17T17:01:39.054Z,20
2023-09-17T17:06:45.759Z,19.9
2023-09-17T17:11:52.429Z,19.9
2023-09-17T17:16:59.197Z,19.8
2023-09-17T17:22:05.902Z,19.7
2023-09-17T17:27:12.664Z,19.7
2023-09-17T17:32:19.405Z,19.6
2023-09-17T17:37:26.137Z,19.6
2023-09-17T17:42:34.081Z,19.5
2023-09-17T17:47:40.836Z,19.5
2023-09-17T17:52:47.531Z,19.4
2023-09-17T17:57:54.282Z,19.3
2023-09-17T18:03:01.198Z,19.3
2023-09-17T18:08:07.785Z,19.2
2023-09-17T18:13:18.610Z,19.1
2023-09-17T18:18:22.487Z,19.1
2023-09-17T18:23:29.194Z,19
2023-09-17T18:28:35.929Z,18.9
2023-09-17T18:33:42.674Z,18.9
2023-09-17T18:38:49.400Z,18.8
2023-09-17T18:43:56.156Z,18.8
2023-09-17T18:49:02.886Z,18.7
2023-09-17T18:54:09.624Z,18.5
2023-09-17T18:59:16.394Z,18.6
2023-09-17T19:04:23.090Z,18.5
2023-09-17T19:09:29.823Z,18.5
2023-09-17T19:14:36.515Z,18.4
2023-09-17T19:19:43.269Z,18.3
2023-09-17T19:24:50.016Z,18.3
2023-09-17T19:29:57.970Z,18.2
2023-09-17T19:35:04.847Z,18.1
2023-09-17T19:40:11.444Z,18.1
2023-09-17T19:45:18.187Z,18
2023-09-17T19:50:24.961Z,17.9
2023-09-17T19:55:31.638Z,17.9
2023-09-17T20:00:38.389Z,17.8
2023-09-17T20:05:45.125Z,17.8
2023-09-17T20:10:51.876Z,17.7
2023-09-17T20:15:58.640Z,17.6
2023-09-17T20:21:05.329Z,17.6
2023-09-17T20:26:12.082Z,17.7
2023-09-17T20:31:18.790Z,17.7
2023-09-17T20:36:25.551Z,17.6
2023-09-17T20:41:32.274Z,17.6
2023-09-17T20:46:39.026Z,17.5
2023-09-17T20:51:45.809Z,17.5
2023-09-17T20:56:52.477Z,17.4
2023-09-17T21:01:59.294Z,17.3
2023-09-17T21:07:05.929Z,17.3
2023-09-17T21:12:12.728Z,17.2
2023-09-17T21:17:19.458Z,17.2
2023-09-17T21:22:27.387Z,17.1
2023-09-17T21:27:34.139Z,17.1
2023-09-17T21:32:41.274Z,17
2023-09-17T21:37:48.928Z,17
2023-09-17T21:42:55.576Z,16.9
2023-09-17T21:48:02.338Z,17
2023-09-17T21:53:09.058Z,16.9
2023-09-17T21:58:15.746Z,16.9
2023-09-17T22:03:22.683Z,16.8
2023-09-17T22:08:30.548Z,16.8
2023-09-17T22:13:38.433Z,16.7
2023-09-17T22:18:45.216Z,16.7
2023-09-17T22:23:51.917Z,16.6
2023-09-17T22:28:59.911Z,16.6
2023-09-17T22:34:06.543Z,16.6
2023-09-17T22:39:13.342Z,16.6
2023-09-17T22:44:24.386Z,16.5
2023-09-17T22:49:26.830Z,16.5
2023-09-17T22:54:33.536Z,16.4
2023-09-17T22:59:40.308Z,16.4
2023-09-17T23:04:47.048Z,16.4
2023-09-17T23:09:53.828Z,16.3
2023-09-17T23:15:00.564Z,16.3
2023-09-17T23:20:07.323Z,16.2
2023-09-17T23:25:14.016Z,16.3
2023-09-17T23:30:20.735Z,16.3
2023-09-17T23:35:27.509Z,16.2
2023-09-17T23:40:34.214Z,16.2
2023-09-17T23:45:40.975Z,16.2
2023-09-17T23:50:47.726Z,16.1
2023-09-17T23:55:54.538Z,16.1
